createdAt,value
2019-01-23T00:01:15.145Z,-0.54
2019-01-23T00:03:44.637Z,-0.56
2019-01-23T00:06:14.142Z,-0.43
2019-01-23T00:08:43.679Z,-0.42
2019-01-23T00:11:13.177Z,-0.53
2019-01-23T00:13:42.703Z,-0.50
2019-01-23T00:16:12.245Z,-0.81
2019-01-23T00:18:41.763Z,-0.83
2019-01-23T00:21:11.255Z,-1.03
2019-01-23T00:23:40.977Z,-1.04
2019-01-23T00:26:10.462Z,-0.87
2019-01-23T00:28:42.419Z,-0.74
2019-01-23T00:31:11.199Z,-0.73
2019-01-23T00:33:40.876Z,-0.80
2019-01-23T00:36:10.367Z,-0.92
2019-01-23T00:38:39.908Z,-0.95
2019-01-23T00:41:09.437Z,-1.23
2019-01-23T00:43:38.933Z,-1.08
2019-01-23T00:46:08.684Z,-1.12
2019-01-23T00:48:38.178Z,-1.00
2019-01-23T00:51:07.713Z,-1.03
2019-01-23T00:53:37.219Z,-1.14
2019-01-23T00:56:06.746Z,-1.11
2019-01-23T00:58:36.250Z,-1.06
2019-01-23T01:01:07.633Z,-1.29
2019-01-23T01:03:37.712Z,-1.43
2019-01-23T01:06:07.246Z,-1.34
2019-01-23T01:08:36.834Z,-1.12
2019-01-23T01:11:06.326Z,-1.20
2019-01-23T01:13:35.802Z,-1.24
2019-01-23T01:16:05.722Z,-1.35
2019-01-23T01:18:35.229Z,-1.46
2019-01-23T01:21:04.792Z,-1.45
2019-01-23T01:23:34.282Z,-1.48
2019-01-23T01:26:03.785Z,-1.50
2019-01-23T01:28:33.263Z,-1.35
2019-01-23T01:31:03.304Z,-1.60
2019-01-23T01:33:34.015Z,-1.53
2019-01-23T01:36:04.145Z,-1.58
2019-01-23T01:38:33.681Z,-1.93
2019-01-23T01:41:03.185Z,-1.77
2019-01-23T01:43:32.694Z,-1.88
2019-01-23T01:46:02.203Z,-1.78
2019-01-23T01:48:32.147Z,-1.70
2019-01-23T01:51:01.600Z,-1.76
2019-01-23T01:53:31.467Z,-1.81
2019-01-23T01:56:01.041Z,-1.66
2019-01-23T01:58:30.505Z,-1.68
2019-01-23T02:01:00.037Z,-2.04
2019-01-23T02:03:30.371Z,-2.00
2019-01-23T02:06:00.222Z,-1.92
2019-01-23T02:08:29.762Z,-1.97
2019-01-23T02:10:59.237Z,-1.89
2019-01-23T02:13:28.776Z,-2.09
2019-01-23T02:15:58.881Z,-1.90
2019-01-23T02:18:28.347Z,-1.87
2019-01-23T02:20:58.368Z,-1.82
2019-01-23T02:23:27.907Z,-2.17
2019-01-23T02:25:57.487Z,-2.22
2019-01-23T02:28:26.967Z,-1.92
2019-01-23T02:30:56.481Z,-1.88
2019-01-23T02:33:25.960Z,-1.87
2019-01-23T02:35:55.440Z,-1.74
2019-01-23T02:38:25.002Z,-1.71
2019-01-23T02:40:54.507Z,-1.81
2019-01-23T02:43:24.001Z,-1.87
2019-01-23T02:45:53.535Z,-1.89
2019-01-23T02:48:23.050Z,-2.02
2019-01-23T02:50:52.523Z,-1.85
2019-01-23T02:53:22.091Z,-2.10
2019-01-23T02:55:51.575Z,-2.10
2019-01-23T02:58:21.043Z,-2.44
2019-01-23T03:00:50.684Z,-2.42
2019-01-23T03:03:20.168Z,-2.60
2019-01-23T03:05:49.702Z,-2.53
2019-01-23T03:08:19.193Z,-2.51
2019-01-23T03:10:48.682Z,-2.59
2019-01-23T03:13:18.197Z,-2.76
2019-01-23T03:15:47.711Z,-2.71
2019-01-23T03:18:17.613Z,-2.57
2019-01-23T03:20:47.082Z,-2.53
2019-01-23T03:23:17.995Z,-2.58
2019-01-23T03:25:47.477Z,-2.39
2019-01-23T03:28:16.989Z,-2.36
2019-01-23T03:30:47.399Z,-2.30
2019-01-23T03:33:16.892Z,-2.00
2019-01-23T03:35:46.384Z,-2.04
2019-01-23T03:38:15.886Z,-1.84
2019-01-23T03:40:45.388Z,-1.96
2019-01-23T03:43:14.923Z,-2.19
2019-01-23T03:45:44.670Z,-2.08
2019-01-23T03:48:14.167Z,-2.01
2019-01-23T03:50:43.677Z,-2.18
2019-01-23T03:53:13.234Z,-2.25
2019-01-23T03:55:42.778Z,-2.32
2019-01-23T03:58:12.298Z,-2.58
2019-01-23T04:00:41.876Z,-2.62
2019-01-23T04:03:11.377Z,-2.34
2019-01-23T04:05:40.886Z,-2.46
2019-01-23T04:08:10.674Z,-2.41
2019-01-23T04:10:40.190Z,-2.14
2019-01-23T04:13:09.723Z,-2.11
2019-01-23T04:15:39.320Z,-2.06
2019-01-23T04:18:08.822Z,-2.04
2019-01-23T04:20:38.302Z,-2.29
2019-01-23T04:23:07.822Z,-2.36
2019-01-23T04:25:37.346Z,-2.27
2019-01-23T04:28:06.911Z,-2.20
2019-01-23T04:30:36.900Z,-2.32
2019-01-23T04:33:06.427Z,-2.39
2019-01-23T04:35:35.907Z,-2.36
2019-01-23T04:38:05.488Z,-2.67
2019-01-23T04:40:34.972Z,-2.53
2019-01-23T04:43:04.550Z,-2.51
2019-01-23T04:45:34.051Z,-2.37
2019-01-23T04:48:03.564Z,-2.75
2019-01-23T04:50:34.673Z,-2.82
2019-01-23T04:53:12.499Z,-2.96
2019-01-23T04:55:42.005Z,-2.84
2019-01-23T04:58:11.507Z,-2.86
2019-01-23T05:00:40.987Z,-2.85
2019-01-23T05:03:10.474Z,-2.80
2019-01-23T05:05:39.975Z,-2.64
2019-01-23T05:08:09.996Z,-2.93
2019-01-23T05:10:39.490Z,-3.02
2019-01-23T05:13:09.069Z,-2.92
2019-01-23T05:15:39.043Z,-2.85
2019-01-23T05:18:08.541Z,-3.14
2019-01-23T05:20:38.044Z,-3.04
2019-01-23T05:23:07.604Z,-3.10
2019-01-23T05:25:37.115Z,-3.60
2019-01-23T05:28:06.653Z,-3.33
2019-01-23T05:30:36.211Z,-2.96
2019-01-23T05:33:05.677Z,-3.04
2019-01-23T05:35:35.179Z,-2.95
2019-01-23T05:38:05.120Z,-2.91
2019-01-23T05:40:34.626Z,-2.92
2019-01-23T05:43:04.640Z,-3.11
2019-01-23T05:45:34.153Z,-3.04
2019-01-23T05:48:03.628Z,-3.21
2019-01-23T05:50:33.119Z,-3.10
2019-01-23T05:53:02.668Z,-3.17
2019-01-23T05:55:32.133Z,-3.39
2019-01-23T05:58:01.643Z,-3.44
2019-01-23T06:00:31.203Z,-3.04
2019-01-23T06:03:00.713Z,-3.30
2019-01-23T06:05:30.259Z,-3.24
2019-01-23T06:07:59.801Z,-3.23
2019-01-23T06:10:48.846Z,-3.16
2019-01-23T06:13:18.387Z,-3.21
2019-01-23T06:15:47.874Z,-3.08
2019-01-23T06:18:17.378Z,-3.22
2019-01-23T06:20:46.961Z,-3.34
2019-01-23T06:23:17.514Z,-3.53
2019-01-23T06:25:48.491Z,-3.32
2019-01-23T06:28:18.014Z,-3.19
2019-01-23T06:30:47.487Z,-3.30
2019-01-23T06:33:17.082Z,-3.33
2019-01-23T06:35:46.577Z,-3.35
2019-01-23T06:38:16.391Z,-3.37
2019-01-23T06:40:45.899Z,-3.30
2019-01-23T06:43:15.495Z,-3.39
2019-01-23T06:45:45.324Z,-3.36
2019-01-23T06:48:14.870Z,-3.26
2019-01-23T06:50:44.405Z,-3.22
2019-01-23T06:53:14.354Z,-3.30
2019-01-23T06:55:43.983Z,-3.62
2019-01-23T06:58:13.546Z,-3.46
2019-01-23T07:00:43.061Z,-3.24
2019-01-23T07:03:12.643Z,-3.34
2019-01-23T07:05:42.377Z,-3.06
2019-01-23T07:08:11.945Z,-3.24
2019-01-23T07:10:41.423Z,-3.21
2019-01-23T07:13:10.941Z,-3.03
2019-01-23T07:15:40.437Z,-2.83
2019-01-23T07:18:09.963Z,-2.74
2019-01-23T07:20:39.499Z,-2.89
2019-01-23T07:23:08.967Z,-3.13
2019-01-23T07:25:38.472Z,-3.07
2019-01-23T07:28:08.206Z,-3.00
2019-01-23T07:30:39.141Z,-2.95
2019-01-23T07:33:09.091Z,-2.71
2019-01-23T07:35:38.616Z,-2.75
2019-01-23T07:38:08.158Z,-2.65
2019-01-23T07:40:37.685Z,-2.54
2019-01-23T07:43:07.217Z,-2.39
2019-01-23T07:45:36.724Z,-2.35
2019-01-23T07:48:06.234Z,-2.14
2019-01-23T07:50:36.264Z,-2.33
2019-01-23T07:53:06.179Z,-2.48
2019-01-23T07:55:35.689Z,-2.69
2019-01-23T07:58:05.280Z,-2.81
2019-01-23T08:00:34.752Z,-2.98
2019-01-23T08:03:04.311Z,-2.62
2019-01-23T08:05:33.820Z,-2.37
2019-01-23T08:08:03.388Z,-2.22
2019-01-23T08:10:32.920Z,-1.92
2019-01-23T08:13:02.706Z,-1.84
2019-01-23T08:15:34.835Z,-1.70
2019-01-23T08:18:05.088Z,-1.50
2019-01-23T08:20:35.971Z,-1.78
2019-01-23T08:23:05.601Z,-1.64
2019-01-23T08:25:35.107Z,-1.80
2019-01-23T08:28:05.619Z,-1.38
2019-01-23T08:30:38.895Z,-1.41
2019-01-23T08:33:06.385Z,-1.27
2019-01-23T08:35:36.166Z,-1.00
2019-01-23T08:38:07.220Z,-1.29
2019-01-23T08:40:37.009Z,-0.90
2019-01-23T08:43:06.973Z,-0.74
2019-01-23T08:45:36.947Z,-0.94
2019-01-23T08:48:06.491Z,-1.35
2019-01-23T08:50:39.824Z,-1.52
2019-01-23T08:53:09.392Z,-1.60
2019-01-23T08:55:38.953Z,-1.09
2019-01-23T08:58:08.842Z,-1.84
2019-01-23T09:00:38.316Z,-2.07
2019-01-23T09:03:08.007Z,-2.00
2019-01-23T09:05:37.580Z,-2.21
2019-01-23T09:08:07.581Z,-2.08
2019-01-23T09:10:37.068Z,-2.21
2019-01-23T09:13:06.601Z,-2.02
2019-01-23T09:15:36.096Z,-2.52
2019-01-23T09:18:07.878Z,-2.48
2019-01-23T09:20:37.487Z,-2.54
2019-01-23T09:23:06.998Z,-2.16
2019-01-23T09:25:36.469Z,-2.18
2019-01-23T09:28:06.016Z,-1.65
2019-01-23T09:30:43.392Z,-1.74
2019-01-23T09:33:38.484Z,-1.71
2019-01-23T09:36:33.047Z,-1.79
2019-01-23T09:39:27.454Z,-1.69
2019-01-23T09:42:10.816Z,-1.76
2019-01-23T09:44:59.405Z,-1.72
2019-01-23T09:47:42.302Z,-1.34
2019-01-23T09:50:37.396Z,-1.41
2019-01-23T09:53:32.301Z,-1.53
2019-01-23T09:56:01.870Z,-1.96
2019-01-23T09:58:31.376Z,-1.97
2019-01-23T10:01:01.016Z,-1.80
2019-01-23T10:03:30.532Z,-1.83
2019-01-23T10:06:00.090Z,-1.64
2019-01-23T10:08:29.586Z,-1.70
2019-01-23T10:10:59.131Z,-1.75
2019-01-23T10:13:28.628Z,-1.88
2019-01-23T10:15:58.271Z,-1.77
2019-01-23T10:18:28.314Z,-1.68
2019-01-23T10:20:57.826Z,-1.65
2019-01-23T10:23:27.278Z,-1.26
2019-01-23T10:25:56.823Z,-1.06
2019-01-23T10:28:26.920Z,-1.03
2019-01-23T10:30:56.570Z,-0.72
2019-01-23T10:33:26.204Z,-0.63
2019-01-23T10:35:55.734Z,-0.88
2019-01-23T10:38:25.248Z,-1.04
2019-01-23T10:40:55.014Z,-0.86
2019-01-23T10:43:24.517Z,-1.70
2019-01-23T10:45:53.983Z,-1.58
2019-01-23T10:48:23.543Z,-1.69
2019-01-23T10:50:53.055Z,-1.24
2019-01-23T10:53:22.570Z,-1.33
2019-01-23T10:55:52.065Z,-1.66
2019-01-23T10:58:21.547Z,-1.71
2019-01-23T11:00:51.050Z,-1.35
2019-01-23T11:03:20.692Z,-1.51
2019-01-23T11:05:50.198Z,-1.03
2019-01-23T11:08:19.679Z,-0.65
2019-01-23T11:10:49.209Z,-0.45
2019-01-23T11:13:18.722Z,-0.43
2019-01-23T11:15:48.268Z,-0.93
2019-01-23T11:18:17.810Z,-1.23
2019-01-23T11:20:47.406Z,-0.77
2019-01-23T11:23:16.996Z,-0.88
2019-01-23T11:25:46.884Z,-0.82
2019-01-23T11:28:16.372Z,-0.61
2019-01-23T11:30:45.872Z,-0.72
2019-01-23T11:33:15.401Z,-0.82
2019-01-23T11:35:45.326Z,-0.91
2019-01-23T11:38:14.904Z,-1.33
2019-01-23T11:40:44.540Z,-0.84
2019-01-23T11:43:14.048Z,-0.39
2019-01-23T11:45:43.619Z,-0.40
2019-01-23T11:48:13.462Z,-0.04
2019-01-23T11:50:43.226Z,0.16
2019-01-23T11:53:12.772Z,-0.62
2019-01-23T11:55:42.322Z,-0.55
2019-01-23T11:58:11.781Z,0.10
2019-01-23T12:00:41.324Z,0.29
2019-01-23T12:03:10.877Z,0.20
2019-01-23T12:05:40.404Z,0.15
2019-01-23T12:08:10.282Z,0.53
2019-01-23T12:10:40.122Z,0.78
2019-01-23T12:13:09.614Z,0.51
2019-01-23T12:15:40.932Z,1.09
2019-01-23T12:18:10.369Z,1.60
2019-01-23T12:20:40.221Z,0.90
2019-01-23T12:23:09.689Z,0.88
2019-01-23T12:25:39.207Z,0.72
2019-01-23T12:28:08.687Z,0.31
2019-01-23T12:30:38.707Z,0.80
2019-01-23T12:33:08.444Z,1.02
2019-01-23T12:35:37.984Z,0.80
2019-01-23T12:38:07.470Z,0.71
2019-01-23T12:40:37.009Z,1.22
2019-01-23T12:43:06.526Z,1.51
2019-01-23T12:45:36.018Z,1.40
2019-01-23T12:48:05.658Z,1.66
2019-01-23T12:50:35.285Z,1.44
2019-01-23T12:53:04.841Z,1.59
2019-01-23T12:55:34.547Z,1.46
2019-01-23T12:58:04.087Z,1.31
2019-01-23T13:00:33.611Z,1.26
2019-01-23T13:03:03.211Z,1.33
2019-01-23T13:05:32.816Z,1.44
2019-01-23T13:08:02.261Z,0.96
2019-01-23T13:10:31.777Z,0.66
2019-01-23T13:13:01.339Z,0.96
2019-01-23T13:15:31.039Z,1.06
2019-01-23T13:18:00.806Z,1.46
2019-01-23T13:20:30.296Z,1.35
2019-01-23T13:22:59.864Z,1.90
2019-01-23T13:25:30.460Z,1.96
2019-01-23T13:28:02.466Z,2.31
2019-01-23T13:30:31.933Z,2.20
2019-01-23T13:33:02.193Z,2.43
2019-01-23T13:35:36.133Z,1.84
2019-01-23T13:38:10.375Z,1.88
2019-01-23T13:40:39.948Z,1.81
2019-01-23T13:43:09.515Z,2.15
2019-01-23T13:45:39.115Z,2.18
2019-01-23T13:48:09.381Z,1.81
2019-01-23T13:50:38.886Z,1.45
2019-01-23T13:53:09.069Z,1.55
2019-01-23T13:55:38.535Z,1.20
2019-01-23T13:58:08.190Z,1.02
2019-01-23T14:00:42.823Z,0.87
2019-01-23T14:03:12.388Z,0.98
2019-01-23T14:05:41.890Z,0.82
2019-01-23T14:08:11.936Z,1.02
2019-01-23T14:10:41.457Z,0.88
2019-01-23T14:13:10.920Z,0.98
2019-01-23T14:15:41.400Z,0.89
2019-01-23T14:18:10.893Z,1.14
2019-01-23T14:20:40.443Z,1.21
2019-01-23T14:23:09.968Z,0.89
2019-01-23T14:25:39.488Z,0.51
2019-01-23T14:28:09.057Z,0.62
2019-01-23T14:30:44.935Z,0.69
2019-01-23T14:33:14.844Z,0.89
2019-01-23T14:35:44.358Z,0.60
2019-01-23T14:38:14.010Z,0.49
2019-01-23T14:40:43.493Z,0.75
2019-01-23T14:43:12.973Z,0.60
2019-01-23T14:45:42.495Z,0.67
2019-01-23T14:48:11.980Z,0.55
2019-01-23T14:50:41.475Z,0.46
2019-01-23T14:53:11.052Z,0.57
2019-01-23T14:55:40.545Z,0.70
2019-01-23T14:58:10.094Z,0.52
2019-01-23T15:00:39.720Z,0.42
2019-01-23T15:03:09.229Z,0.74
2019-01-23T15:05:38.716Z,0.78
2019-01-23T15:08:08.313Z,0.23
2019-01-23T15:10:37.820Z,0.35
2019-01-23T15:13:07.743Z,0.31
2019-01-23T15:15:37.662Z,0.55
2019-01-23T15:18:07.475Z,0.72
2019-01-23T15:20:38.909Z,0.79
2019-01-23T15:23:08.435Z,0.64
2019-01-23T15:25:37.949Z,0.77
2019-01-23T15:28:07.506Z,0.74
2019-01-23T15:30:37.112Z,0.54
2019-01-23T15:33:06.593Z,0.41
2019-01-23T15:35:36.171Z,0.39
2019-01-23T15:38:05.977Z,0.44
2019-01-23T15:40:36.573Z,0.26
2019-01-23T15:43:06.172Z,0.18
2019-01-23T15:45:35.877Z,0.11
2019-01-23T15:48:05.514Z,0.04
2019-01-23T15:50:36.826Z,0.14
2019-01-23T15:53:07.028Z,0.09
2019-01-23T15:55:36.600Z,0.10
2019-01-23T15:58:06.161Z,-0.08
2019-01-23T16:00:36.790Z,-0.06
2019-01-23T16:03:06.355Z,-0.32
2019-01-23T16:05:36.308Z,-0.08
2019-01-23T16:08:06.334Z,-0.01
2019-01-23T16:10:35.848Z,-0.18
2019-01-23T16:13:05.406Z,-0.14
2019-01-23T16:15:35.026Z,-0.07
2019-01-23T16:18:04.586Z,-0.04
2019-01-23T16:20:34.090Z,-0.13
2019-01-23T16:23:04.052Z,0.05
2019-01-23T16:25:34.025Z,0.04
2019-01-23T16:28:03.488Z,0.13
2019-01-23T16:30:36.584Z,0.04
2019-01-23T16:33:06.808Z,-0.02
2019-01-23T16:35:38.798Z,0.00
2019-01-23T16:38:09.410Z,-0.04
2019-01-23T16:40:38.888Z,-0.30
2019-01-23T16:43:08.451Z,-0.29
2019-01-23T16:45:37.946Z,-0.48
2019-01-23T16:48:07.589Z,-0.60
2019-01-23T16:50:37.181Z,-0.66
2019-01-23T16:53:06.731Z,-0.61
2019-01-23T16:55:36.375Z,-0.61
2019-01-23T16:58:07.515Z,-0.62
2019-01-23T17:00:37.434Z,-0.48
2019-01-23T17:03:07.650Z,-0.50
2019-01-23T17:05:38.906Z,-0.66
2019-01-23T17:08:09.642Z,-0.67
2019-01-23T17:10:40.883Z,-0.45
2019-01-23T17:13:11.309Z,-0.47
2019-01-23T17:15:41.607Z,-0.50
2019-01-23T17:18:11.161Z,-0.63
2019-01-23T17:20:44.389Z,-0.66
2019-01-23T17:23:13.938Z,-0.73
2019-01-23T17:25:44.139Z,-0.67
2019-01-23T17:28:14.823Z,-0.70
2019-01-23T17:30:44.699Z,-0.85
2019-01-23T17:33:14.188Z,-0.93
2019-01-23T17:35:44.122Z,-0.81
2019-01-23T17:38:13.646Z,-0.79
2019-01-23T17:40:43.151Z,-0.77
2019-01-23T17:43:13.933Z,-0.61
2019-01-23T17:45:43.530Z,-0.51
2019-01-23T17:48:17.731Z,-0.47
2019-01-23T17:50:47.367Z,-0.69
2019-01-23T17:53:17.453Z,-0.70
2019-01-23T17:55:46.968Z,-0.37
2019-01-23T17:58:16.888Z,-0.32
2019-01-23T18:00:50.680Z,-0.23
2019-01-23T18:03:20.289Z,-0.18
2019-01-23T18:05:51.237Z,-0.35
2019-01-23T18:08:21.642Z,-0.48
2019-01-23T18:10:51.176Z,-0.49
2019-01-23T18:13:20.686Z,-0.47
2019-01-23T18:15:50.250Z,-0.51
2019-01-23T18:18:20.385Z,-0.61
2019-01-23T18:20:49.851Z,-1.03
2019-01-23T18:23:19.370Z,-1.06
2019-01-23T18:25:48.853Z,-1.01
2019-01-23T18:28:18.355Z,-1.00
2019-01-23T18:30:52.733Z,-0.99
2019-01-23T18:33:32.147Z,-0.82
2019-01-23T18:36:35.178Z,-0.69
2019-01-23T18:39:12.064Z,-0.79
2019-01-23T18:41:48.957Z,-0.92
2019-01-23T18:44:38.840Z,-0.78
2019-01-23T18:47:37.472Z,-0.92
2019-01-23T18:50:30.895Z,-0.89
2019-01-23T18:53:00.915Z,-1.06
2019-01-23T18:55:30.417Z,-1.09
2019-01-23T18:58:00.428Z,-0.98
2019-01-23T19:00:30.029Z,-0.91
2019-01-23T19:02:59.521Z,-0.84
2019-01-23T19:05:29.789Z,-0.79
2019-01-23T19:07:59.737Z,-0.92
2019-01-23T19:10:29.519Z,-0.79
2019-01-23T19:12:59.409Z,-0.83
2019-01-23T19:15:29.533Z,-0.92
2019-01-23T19:17:59.210Z,-0.79
2019-01-23T19:20:29.220Z,-0.75
2019-01-23T19:22:58.758Z,-0.98
2019-01-23T19:25:28.437Z,-0.88
2019-01-23T19:27:58.430Z,-0.86
2019-01-23T19:30:28.355Z,-1.11
2019-01-23T19:32:57.836Z,-1.08
2019-01-23T19:35:27.415Z,-1.09
2019-01-23T19:37:56.962Z,-1.23
2019-01-23T19:40:26.470Z,-1.37
2019-01-23T19:42:56.153Z,-1.44
2019-01-23T19:45:25.797Z,-1.48
2019-01-23T19:47:55.279Z,-1.62
2019-01-23T19:50:24.788Z,-1.97
2019-01-23T19:52:54.397Z,-2.16
2019-01-23T19:55:23.957Z,-2.08
2019-01-23T19:57:53.527Z,-2.27
2019-01-23T20:00:23.582Z,-2.24
2019-01-23T20:02:53.109Z,-2.30
2019-01-23T20:05:25.978Z,-2.31
2019-01-23T20:07:56.173Z,-2.54
2019-01-23T20:10:26.215Z,-2.86
2019-01-23T20:12:55.829Z,-2.75
2019-01-23T20:15:25.475Z,-2.57
2019-01-23T20:17:56.614Z,-2.96
2019-01-23T20:20:26.122Z,-2.86
2019-01-23T20:22:55.718Z,-2.87
2019-01-23T20:25:27.135Z,-2.83
2019-01-23T20:27:57.275Z,-2.93
2019-01-23T20:30:32.047Z,-3.05
2019-01-23T20:33:01.635Z,-2.98
2019-01-23T20:35:31.244Z,-3.10
2019-01-23T20:38:02.098Z,-2.97
2019-01-23T20:40:31.670Z,-3.11
2019-01-23T20:43:01.188Z,-2.81
2019-01-23T20:45:30.847Z,-3.13
2019-01-23T20:48:00.374Z,-3.22
2019-01-23T20:50:31.802Z,-3.07
2019-01-23T20:53:01.717Z,-2.90
2019-01-23T20:55:31.361Z,-3.08
2019-01-23T20:58:00.923Z,-3.61
2019-01-23T21:00:34.340Z,-3.57
2019-01-23T21:03:04.330Z,-3.52
2019-01-23T21:05:33.905Z,-4.06
2019-01-23T21:08:03.869Z,-4.07
2019-01-23T21:10:33.370Z,-3.98
2019-01-23T21:13:02.997Z,-3.75
2019-01-23T21:15:32.602Z,-3.86
2019-01-23T21:18:02.109Z,-3.94
2019-01-23T21:20:32.346Z,-3.97
2019-01-23T21:23:01.859Z,-4.33
2019-01-23T21:25:31.382Z,-4.37
2019-01-23T21:28:01.000Z,-4.25
2019-01-23T21:30:30.606Z,-4.20
2019-01-23T21:33:00.114Z,-3.83
2019-01-23T21:35:29.613Z,-4.09
2019-01-23T21:37:59.151Z,-3.84
2019-01-23T21:40:31.462Z,-3.63
2019-01-23T21:43:02.805Z,-3.99
2019-01-23T21:45:33.122Z,-4.12
2019-01-23T21:48:02.644Z,-4.15
2019-01-23T21:50:32.163Z,-3.94
2019-01-23T21:53:01.681Z,-3.62
2019-01-23T21:55:31.179Z,-3.89
2019-01-23T21:58:00.690Z,-3.96
2019-01-23T22:00:37.927Z,-3.85
2019-01-23T22:03:10.248Z,-3.78
2019-01-23T22:05:39.951Z,-3.41
2019-01-23T22:08:09.816Z,-3.75
2019-01-23T22:10:39.413Z,-3.74
2019-01-23T22:13:08.945Z,-3.60
2019-01-23T22:15:38.954Z,-3.31
2019-01-23T22:18:08.642Z,-3.45
2019-01-23T22:20:38.289Z,-3.49
2019-01-23T22:23:10.661Z,-3.26
2019-01-23T22:25:40.139Z,-3.41
2019-01-23T22:28:09.765Z,-3.72
2019-01-23T22:30:58.714Z,-4.00
2019-01-23T22:33:28.200Z,-3.82
2019-01-23T22:35:57.667Z,-3.45
2019-01-23T22:38:27.241Z,-3.44
2019-01-23T22:40:56.757Z,-3.19
2019-01-23T22:43:26.238Z,-3.13
2019-01-23T22:45:55.728Z,-3.19
2019-01-23T22:48:25.218Z,-3.72
2019-01-23T22:50:54.881Z,-3.64
2019-01-23T22:53:25.968Z,-3.28
2019-01-23T22:55:55.476Z,-3.61
2019-01-23T22:58:24.968Z,-4.08
2019-01-23T23:01:01.960Z,-4.08
2019-01-23T23:03:31.796Z,-3.81
2019-01-23T23:06:01.255Z,-3.86
2019-01-23T23:08:31.332Z,-3.80
2019-01-23T23:11:20.153Z,-3.46
2019-01-23T23:13:49.696Z,-3.30
2019-01-23T23:16:19.278Z,-3.26
2019-01-23T23:18:48.779Z,-3.38
2019-01-23T23:21:18.713Z,-3.40
2019-01-23T23:23:48.181Z,-3.43
2019-01-23T23:26:17.689Z,-3.45
2019-01-23T23:28:47.378Z,-3.36
2019-01-23T23:31:16.871Z,-3.30
2019-01-23T23:33:46.384Z,-3.26
2019-01-23T23:36:15.993Z,-3.21
2019-01-23T23:38:45.492Z,-3.22
2019-01-23T23:41:14.969Z,-3.07
2019-01-23T23:43:44.501Z,-3.15
2019-01-23T23:46:13.999Z,-3.27
2019-01-23T23:48:43.552Z,-3.14
2019-01-23T23:51:13.147Z,-3.20
2019-01-23T23:53:42.653Z,-3.31
2019-01-23T23:56:12.180Z,-3.35
2019-01-23T23:58:41.694Z,-3.31
